sensor_id;sensor_type;location;lat;lon;timestamp;pressure;altitude;pressure_sealevel;temperature;humidity
6413;BME280;3239;48.714;9.472;2023-06-26T00:01:24;98126.47;;;18.52;100.00
6413;BME280;3239;48.714;9.472;2023-06-26T00:03:49;98120.75;;;18.40;100.00
6413;BME280;3239;48.714;9.472;2023-06-26T00:06:15;98120.59;;;18.38;100.00
6413;BME280;3239;48.714;9.472;2023-06-26T00:08:41;98120.91;;;18.42;100.00
6413;BME280;3239;48.714;9.472;2023-06-26T00:11:06;98119.28;;;18.39;100.00
6413;BME280;3239;48.714;9.472;2023-06-26T00:13:33;98124.53;;;18.35;100.00
6413;BME280;3239;48.714;9.472;2023-06-26T00:15:59;98128.19;;;18.38;100.00
6413;BME280;3239;48.714;9.472;2023-06-26T00:18:29;98121.41;;;18.31;100.00
6413;BME280;3239;48.714;9.472;2023-06-26T00:20:54;98131.47;;;18.27;100.00
6413;BME280;3239;48.714;9.472;2023-06-26T00:23:20;98134.25;;;18.27;100.00
6413;BME280;3239;48.714;9.472;2023-06-26T00:25:46;98125.19;;;18.26;100.00
6413;BME280;3239;48.714;9.472;2023-06-26T00:28:12;98134.34;;;18.19;100.00
6413;BME280;3239;48.714;9.472;2023-06-26T00:30:38;98136.16;;;18.07;100.00
6413;BME280;3239;48.714;9.472;2023-06-26T00:33:03;98137.06;;;17.83;100.00
6413;BME280;3239;48.714;9.472;2023-06-26T00:35:29;98138.34;;;17.99;100.00
6413;BME280;3239;48.714;9.472;2023-06-26T00:37:55;98143.31;;;17.84;100.00
6413;BME280;3239;48.714;9.472;2023-06-26T00:40:21;98143.22;;;17.91;100.00
6413;BME280;3239;48.714;9.472;2023-06-26T00:42:46;98140.72;;;17.86;100.00
6413;BME280;3239;48.714;9.472;2023-06-26T00:45:12;98146.28;;;17.86;100.00
6413;BME280;3239;48.714;9.472;2023-06-26T00:47:38;98152.47;;;17.77;100.00
6413;BME280;3239;48.714;9.472;2023-06-26T00:50:05;98152.81;;;17.81;100.00
6413;BME280;3239;48.714;9.472;2023-06-26T00:52:32;98153.88;;;17.68;100.00
6413;BME280;3239;48.714;9.472;2023-06-26T00:54:58;98154.44;;;17.67;100.00
6413;BME280;3239;48.714;9.472;2023-06-26T00:57:24;98157.53;;;17.71;100.00
6413;BME280;3239;48.714;9.472;2023-06-26T00:59:50;98149.47;;;17.65;100.00
6413;BME280;3239;48.714;9.472;2023-06-26T01:02:16;98144.09;;;17.67;100.00
6413;BME280;3239;48.714;9.472;2023-06-26T01:04:52;98147.13;;;17.62;100.00
6413;BME280;3239;48.714;9.472;2023-06-26T01:07:19;98148.19;;;17.66;100.00
6413;BME280;3239;48.714;9.472;2023-06-26T01:09:48;98140.13;;;17.44;100.00
6413;BME280;3239;48.714;9.472;2023-06-26T01:12:14;98143.72;;;17.54;100.00
6413;BME280;3239;48.714;9.472;2023-06-26T01:14:41;98140.69;;;17.59;100.00
6413;BME280;3239;48.714;9.472;2023-06-26T01:17:08;98138.19;;;17.54;100.00
6413;BME280;3239;48.714;9.472;2023-06-26T01:19:37;98139.31;;;17.51;100.00
6413;BME280;3239;48.714;9.472;2023-06-26T01:22:21;98138.13;;;17.44;100.00
6413;BME280;3239;48.714;9.472;2023-06-26T01:25:21;98139.88;;;17.32;100.00
6413;BME280;3239;48.714;9.472;2023-06-26T01:27:50;98147.56;;;17.41;100.00
6413;BME280;3239;48.714;9.472;2023-06-26T01:30:19;98140.53;;;17.23;100.00
6413;BME280;3239;48.714;9.472;2023-06-26T01:32:45;98141.25;;;17.24;100.00
6413;BME280;3239;48.714;9.472;2023-06-26T01:35:12;98140.91;;;17.20;100.00
6413;BME280;3239;48.714;9.472;2023-06-26T01:37:40;98131.97;;;17.29;100.00
6413;BME280;3239;48.714;9.472;2023-06-26T01:40:06;98136.44;;;17.24;100.00
6413;BME280;3239;48.714;9.472;2023-06-26T01:42:34;98134.81;;;17.21;100.00
6413;BME280;3239;48.714;9.472;2023-06-26T01:45:12;98139.53;;;17.11;100.00
6413;BME280;3239;48.714;9.472;2023-06-26T01:47:45;98138.06;;;17.10;100.00
6413;BME280;3239;48.714;9.472;2023-06-26T01:50:21;98133.50;;;17.05;100.00
6413;BME280;3239;48.714;9.472;2023-06-26T01:53:02;98142.06;;;17.00;100.00
6413;BME280;3239;48.714;9.472;2023-06-26T01:55:57;98137.56;;;17.04;100.00
6413;BME280;3239;48.714;9.472;2023-06-26T01:58:26;98139.25;;;16.83;100.00
6413;BME280;3239;48.714;9.472;2023-06-26T02:00:53;98140.53;;;16.65;100.00
6413;BME280;3239;48.714;9.472;2023-06-26T02:03:19;98148.19;;;16.74;100.00
6413;BME280;3239;48.714;9.472;2023-06-26T02:05:45;98144.03;;;16.65;100.00
6413;BME280;3239;48.714;9.472;2023-06-26T02:08:14;98150.97;;;16.74;100.00
6413;BME280;3239;48.714;9.472;2023-06-26T02:10:40;98149.66;;;16.75;100.00
6413;BME280;3239;48.714;9.472;2023-06-26T02:13:06;98149.47;;;16.73;100.00
6413;BME280;3239;48.714;9.472;2023-06-26T02:15:32;98148.25;;;16.66;100.00
6413;BME280;3239;48.714;9.472;2023-06-26T02:17:57;98148.75;;;16.72;100.00
6413;BME280;3239;48.714;9.472;2023-06-26T02:20:23;98144.94;;;16.68;100.00
6413;BME280;3239;48.714;9.472;2023-06-26T02:22:49;98139.84;;;16.57;100.00
6413;BME280;3239;48.714;9.472;2023-06-26T02:25:15;98146.84;;;16.58;100.00
6413;BME280;3239;48.714;9.472;2023-06-26T02:27:40;98148.13;;;16.57;100.00
6413;BME280;3239;48.714;9.472;2023-06-26T02:30:08;98152.09;;;16.46;100.00
6413;BME280;3239;48.714;9.472;2023-06-26T02:32:34;98160.91;;;16.52;100.00
6413;BME280;3239;48.714;9.472;2023-06-26T02:35:01;98167.56;;;16.49;100.00
6413;BME280;3239;48.714;9.472;2023-06-26T02:37:26;98162.41;;;16.46;100.00
6413;BME280;3239;48.714;9.472;2023-06-26T02:39:52;98166.66;;;16.47;100.00
6413;BME280;3239;48.714;9.472;2023-06-26T02:42:18;98170.16;;;16.47;100.00
6413;BME280;3239;48.714;9.472;2023-06-26T02:44:44;98173.47;;;16.46;100.00
6413;BME280;3239;48.714;9.472;2023-06-26T02:47:10;98171.53;;;16.31;100.00
6413;BME280;3239;48.714;9.472;2023-06-26T02:49:35;98164.19;;;16.26;100.00
6413;BME280;3239;48.714;9.472;2023-06-26T02:52:01;98164.72;;;16.25;100.00
6413;BME280;3239;48.714;9.472;2023-06-26T02:54:27;98162.66;;;16.33;100.00
6413;BME280;3239;48.714;9.472;2023-06-26T02:56:52;98164.28;;;16.36;100.00
6413;BME280;3239;48.714;9.472;2023-06-26T02:59:18;98162.81;;;16.35;100.00
6413;BME280;3239;48.714;9.472;2023-06-26T03:01:44;98164.19;;;16.26;100.00
6413;BME280;3239;48.714;9.472;2023-06-26T03:04:10;98169.59;;;16.17;100.00
6413;BME280;3239;48.714;9.472;2023-06-26T03:06:36;98172.16;;;16.15;100.00
6413;BME280;3239;48.714;9.472;2023-06-26T03:09:02;98169.75;;;16.19;100.00
6413;BME280;3239;48.714;9.472;2023-06-26T03:11:28;98169.03;;;16.18;100.00
6413;BME280;3239;48.714;9.472;2023-06-26T03:13:54;98173.69;;;16.08;100.00
6413;BME280;3239;48.714;9.472;2023-06-26T03:16:20;98175.72;;;16.08;100.00
6413;BME280;3239;48.714;9.472;2023-06-26T03:18:45;98178.47;;;16.08;100.00
6413;BME280;3239;48.714;9.472;2023-06-26T03:21:11;98181.06;;;16.06;100.00
6413;BME280;3239;48.714;9.472;2023-06-26T03:23:37;98181.06;;;16.06;100.00
6413;BME280;3239;48.714;9.472;2023-06-26T03:26:03;98179.34;;;16.18;100.00
6413;BME280;3239;48.714;9.472;2023-06-26T03:28:28;98179.66;;;15.97;100.00
6413;BME280;3239;48.714;9.472;2023-06-26T03:30:56;98189.03;;;15.94;100.00
6413;BME280;3239;48.714;9.472;2023-06-26T03:33:22;98184.22;;;16.02;100.00
6413;BME280;3239;48.714;9.472;2023-06-26T03:35:48;98189.75;;;16.02;100.00
6413;BME280;3239;48.714;9.472;2023-06-26T03:38:13;98187.16;;;16.04;100.00
6413;BME280;3239;48.714;9.472;2023-06-26T03:40:39;98202.31;;;15.96;100.00
6413;BME280;3239;48.714;9.472;2023-06-26T03:43:05;98205.97;;;15.98;100.00
6413;BME280;3239;48.714;9.472;2023-06-26T03:45:30;98206.94;;;15.93;100.00
6413;BME280;3239;48.714;9.472;2023-06-26T03:47:56;98208.78;;;15.91;100.00
6413;BME280;3239;48.714;9.472;2023-06-26T03:50:22;98218.53;;;15.92;100.00
6413;BME280;3239;48.714;9.472;2023-06-26T03:52:48;98215.19;;;16.01;100.00
6413;BME280;3239;48.714;9.472;2023-06-26T03:55:15;98218.50;;;15.99;100.00
6413;BME280;3239;48.714;9.472;2023-06-26T03:57:41;98225.25;;;15.74;100.00
6413;BME280;3239;48.714;9.472;2023-06-26T04:00:07;98222.63;;;15.83;100.00
6413;BME280;3239;48.714;9.472;2023-06-26T04:02:39;98225.19;;;15.89;100.00
6413;BME280;3239;48.714;9.472;2023-06-26T04:05:05;98225.00;;;15.87;100.00
6413;BME280;3239;48.714;9.472;2023-06-26T04:07:31;98232.31;;;15.99;100.00
6413;BME280;3239;48.714;9.472;2023-06-26T04:10:00;98226.44;;;15.95;100.00
6413;BME280;3239;48.714;9.472;2023-06-26T04:12:26;98234.56;;;15.93;100.00
6413;BME280;3239;48.714;9.472;2023-06-26T04:14:51;98232.38;;;15.84;100.00
6413;BME280;3239;48.714;9.472;2023-06-26T04:17:17;98233.34;;;15.72;100.00
6413;BME280;3239;48.714;9.472;2023-06-26T04:19:43;98239.06;;;15.74;100.00
6413;BME280;3239;48.714;9.472;2023-06-26T04:22:08;98243.78;;;15.88;100.00
6413;BME280;3239;48.714;9.472;2023-06-26T04:24:34;98239.38;;;15.85;100.00
6413;BME280;3239;48.714;9.472;2023-06-26T04:27:00;98241.69;;;16.04;100.00
6413;BME280;3239;48.714;9.472;2023-06-26T04:29:28;98245.00;;;16.10;100.00
6413;BME280;3239;48.714;9.472;2023-06-26T04:31:54;98243.69;;;16.11;100.00
6413;BME280;3239;48.714;9.472;2023-06-26T04:34:27;98245.13;;;16.19;100.00
6413;BME280;3239;48.714;9.472;2023-06-26T04:36:54;98241.59;;;16.26;100.00
6413;BME280;3239;48.714;9.472;2023-06-26T04:39:20;98226.97;;;16.41;100.00
6413;BME280;3239;48.714;9.472;2023-06-26T04:41:45;98224.94;;;16.41;100.00
6413;BME280;3239;48.714;9.472;2023-06-26T04:44:11;98224.56;;;16.45;100.00
6413;BME280;3239;48.714;9.472;2023-06-26T04:46:37;98221.75;;;16.52;100.00
6413;BME280;3239;48.714;9.472;2023-06-26T04:49:10;98217.13;;;16.55;100.00
6413;BME280;3239;48.714;9.472;2023-06-26T04:51:36;98221.97;;;16.47;100.00
6413;BME280;3239;48.714;9.472;2023-06-26T04:54:07;98208.66;;;16.53;100.00
6413;BME280;3239;48.714;9.472;2023-06-26T04:56:34;98216.16;;;16.60;100.00
6413;BME280;3239;48.714;9.472;2023-06-26T04:58:59;98222.44;;;16.60;100.00
6413;BME280;3239;48.714;9.472;2023-06-26T05:01:25;98218.38;;;16.61;100.00
6413;BME280;3239;48.714;9.472;2023-06-26T05:04:00;98216.91;;;16.60;100.00
6413;BME280;3239;48.714;9.472;2023-06-26T05:06:26;98213.19;;;16.65;100.00
6413;BME280;3239;48.714;9.472;2023-06-26T05:08:51;98206.16;;;16.89;100.00
6413;BME280;3239;48.714;9.472;2023-06-26T05:11:17;98200.69;;;17.06;100.00
6413;BME280;3239;48.714;9.472;2023-06-26T05:13:43;98209.41;;;17.19;100.00
6413;BME280;3239;48.714;9.472;2023-06-26T05:16:09;98203.63;;;17.25;100.00
6413;BME280;3239;48.714;9.472;2023-06-26T05:18:35;98200.78;;;17.32;100.00
6413;BME280;3239;48.714;9.472;2023-06-26T05:21:02;98196.22;;;17.27;100.00
6413;BME280;3239;48.714;9.472;2023-06-26T05:23:31;98193.09;;;17.48;100.00
6413;BME280;3239;48.714;9.472;2023-06-26T05:25:57;98187.88;;;17.69;100.00
6413;BME280;3239;48.714;9.472;2023-06-26T05:28:24;98175.41;;;17.77;100.00
6413;BME280;3239;48.714;9.472;2023-06-26T05:30:54;98178.69;;;17.93;100.00
6413;BME280;3239;48.714;9.472;2023-06-26T05:33:23;98167.41;;;18.08;100.00
6413;BME280;3239;48.714;9.472;2023-06-26T05:35:52;98174.00;;;18.12;100.00
6413;BME280;3239;48.714;9.472;2023-06-26T05:38:19;98168.66;;;18.24;100.00
6413;BME280;3239;48.714;9.472;2023-06-26T05:40:45;98166.50;;;18.49;100.00
6413;BME280;3239;48.714;9.472;2023-06-26T05:43:11;98166.41;;;18.66;100.00
6413;BME280;3239;48.714;9.472;2023-06-26T05:45:37;98163.66;;;18.75;100.00
6413;BME280;3239;48.714;9.472;2023-06-26T05:48:03;98156.38;;;18.80;100.00
6413;BME280;3239;48.714;9.472;2023-06-26T05:50:29;98161.13;;;19.06;100.00
6413;BME280;3239;48.714;9.472;2023-06-26T05:52:56;98147.81;;;19.14;100.00
6413;BME280;3239;48.714;9.472;2023-06-26T05:55:22;98150.03;;;19.34;100.00
6413;BME280;3239;48.714;9.472;2023-06-26T05:57:50;98141.88;;;19.46;100.00
6413;BME280;3239;48.714;9.472;2023-06-26T06:00:16;98135.56;;;19.64;100.00
6413;BME280;3239;48.714;9.472;2023-06-26T06:02:43;98137.88;;;19.87;100.00
6413;BME280;3239;48.714;9.472;2023-06-26T06:05:09;98143.25;;;20.23;100.00
6413;BME280;3239;48.714;9.472;2023-06-26T06:07:36;98132.31;;;20.46;100.00
6413;BME280;3239;48.714;9.472;2023-06-26T06:10:03;98132.78;;;20.73;100.00
6413;BME280;3239;48.714;9.472;2023-06-26T06:12:29;98122.75;;;20.89;100.00
6413;BME280;3239;48.714;9.472;2023-06-26T06:14:56;98119.19;;;21.19;100.00
6413;BME280;3239;48.714;9.472;2023-06-26T06:17:22;98120.19;;;21.77;100.00
6413;BME280;3239;48.714;9.472;2023-06-26T06:19:49;98115.00;;;21.94;100.00
6413;BME280;3239;48.714;9.472;2023-06-26T06:22:15;98123.72;;;22.44;100.00
6413;BME280;3239;48.714;9.472;2023-06-26T06:24:42;98112.19;;;22.50;100.00
6413;BME280;3239;48.714;9.472;2023-06-26T06:27:08;98107.72;;;23.16;100.00
6413;BME280;3239;48.714;9.472;2023-06-26T06:29:33;98111.59;;;23.34;100.00
6413;BME280;3239;48.714;9.472;2023-06-26T06:31:59;98106.81;;;23.98;100.00
6413;BME280;3239;48.714;9.472;2023-06-26T06:34:25;98101.38;;;23.63;100.00
6413;BME280;3239;48.714;9.472;2023-06-26T06:36:50;98111.69;;;23.36;100.00
6413;BME280;3239;48.714;9.472;2023-06-26T06:39:16;98105.78;;;23.18;100.00
6413;BME280;3239;48.714;9.472;2023-06-26T06:41:42;98108.59;;;23.07;100.00
6413;BME280;3239;48.714;9.472;2023-06-26T06:44:08;98097.75;;;24.24;100.00
6413;BME280;3239;48.714;9.472;2023-06-26T06:46:34;98098.84;;;24.58;100.00
6413;BME280;3239;48.714;9.472;2023-06-26T06:49:00;98096.66;;;25.82;100.00
6413;BME280;3239;48.714;9.472;2023-06-26T06:51:33;98093.50;;;25.89;100.00
6413;BME280;3239;48.714;9.472;2023-06-26T06:53:59;98103.84;;;24.59;100.00
6413;BME280;3239;48.714;9.472;2023-06-26T06:56:24;98095.59;;;24.23;100.00
6413;BME280;3239;48.714;9.472;2023-06-26T06:58:50;98091.31;;;25.59;100.00
6413;BME280;3239;48.714;9.472;2023-06-26T07:01:16;98087.59;;;25.25;100.00
6413;BME280;3239;48.714;9.472;2023-06-26T07:03:41;98083.38;;;25.98;100.00
6413;BME280;3239;48.714;9.472;2023-06-26T07:06:07;98083.72;;;25.90;100.00
6413;BME280;3239;48.714;9.472;2023-06-26T07:08:33;98091.47;;;26.52;100.00
6413;BME280;3239;48.714;9.472;2023-06-26T07:10:58;98087.28;;;27.17;100.00
6413;BME280;3239;48.714;9.472;2023-06-26T07:13:24;98082.75;;;26.46;100.00
6413;BME280;3239;48.714;9.472;2023-06-26T07:15:51;98090.66;;;26.34;100.00
6413;BME280;3239;48.714;9.472;2023-06-26T07:18:16;98085.56;;;26.77;100.00
6413;BME280;3239;48.714;9.472;2023-06-26T07:20:42;98090.34;;;26.90;100.00
6413;BME280;3239;48.714;9.472;2023-06-26T07:23:08;98083.63;;;27.14;100.00
6413;BME280;3239;48.714;9.472;2023-06-26T07:25:35;98092.91;;;27.17;100.00
6413;BME280;3239;48.714;9.472;2023-06-26T07:28:00;98089.16;;;27.63;100.00
6413;BME280;3239;48.714;9.472;2023-06-26T07:30:26;98088.25;;;28.11;100.00
6413;BME280;3239;48.714;9.472;2023-06-26T07:32:52;98094.50;;;28.27;100.00
6413;BME280;3239;48.714;9.472;2023-06-26T07:35:18;98095.22;;;28.27;100.00
6413;BME280;3239;48.714;9.472;2023-06-26T07:37:44;98081.44;;;27.98;100.00
6413;BME280;3239;48.714;9.472;2023-06-26T07:40:10;98088.06;;;29.22;96.87
6413;BME280;3239;48.714;9.472;2023-06-26T07:42:36;98089.97;;;29.80;89.99
6413;BME280;3239;48.714;9.472;2023-06-26T07:45:02;98093.28;;;30.17;92.88
6413;BME280;3239;48.714;9.472;2023-06-26T07:47:30;98086.16;;;29.71;87.43
6413;BME280;3239;48.714;9.472;2023-06-26T07:49:56;98093.81;;;30.12;87.31
6413;BME280;3239;48.714;9.472;2023-06-26T07:52:22;98095.38;;;29.72;83.02
6413;BME280;3239;48.714;9.472;2023-06-26T07:54:47;98091.56;;;30.08;84.12
6413;BME280;3239;48.714;9.472;2023-06-26T07:57:13;98091.22;;;28.71;93.32
6413;BME280;3239;48.714;9.472;2023-06-26T07:59:39;98081.66;;;28.04;100.00
6413;BME280;3239;48.714;9.472;2023-06-26T08:02:05;98081.97;;;28.12;98.76
6413;BME280;3239;48.714;9.472;2023-06-26T08:04:31;98087.22;;;28.02;100.00
6413;BME280;3239;48.714;9.472;2023-06-26T08:07:01;98091.44;;;28.58;100.00
6413;BME280;3239;48.714;9.472;2023-06-26T08:09:28;98082.25;;;28.96;100.00
6413;BME280;3239;48.714;9.472;2023-06-26T08:11:56;98081.47;;;29.56;88.84
6413;BME280;3239;48.714;9.472;2023-06-26T08:14:21;98085.94;;;28.81;97.12
6413;BME280;3239;48.714;9.472;2023-06-26T08:16:47;98084.91;;;28.92;93.25
6413;BME280;3239;48.714;9.472;2023-06-26T08:19:14;98084.63;;;29.04;94.08
6413;BME280;3239;48.714;9.472;2023-06-26T08:21:41;98076.63;;;29.18;94.25
6413;BME280;3239;48.714;9.472;2023-06-26T08:24:07;98071.41;;;28.89;93.82
6413;BME280;3239;48.714;9.472;2023-06-26T08:26:34;98075.25;;;28.78;94.72
6413;BME280;3239;48.714;9.472;2023-06-26T08:29:00;98060.09;;;30.43;89.32
6413;BME280;3239;48.714;9.472;2023-06-26T08:31:25;98062.94;;;31.49;76.62
6413;BME280;3239;48.714;9.472;2023-06-26T08:33:51;98061.19;;;31.09;77.32
6413;BME280;3239;48.714;9.472;2023-06-26T08:36:17;98059.84;;;31.69;73.94
6413;BME280;3239;48.714;9.472;2023-06-26T08:38:43;98063.09;;;31.87;66.02
6413;BME280;3239;48.714;9.472;2023-06-26T08:41:09;98056.56;;;30.94;72.61
6413;BME280;3239;48.714;9.472;2023-06-26T08:43:35;98056.06;;;30.76;78.65
6413;BME280;3239;48.714;9.472;2023-06-26T08:46:02;98064.81;;;30.60;77.40
6413;BME280;3239;48.714;9.472;2023-06-26T08:48:32;98053.22;;;30.50;76.56
6413;BME280;3239;48.714;9.472;2023-06-26T08:51:05;98054.00;;;30.27;77.55
6413;BME280;3239;48.714;9.472;2023-06-26T08:56:16;98049.31;;;30.63;75.64
6413;BME280;3239;48.714;9.472;2023-06-26T08:58:44;98047.63;;;31.05;75.17
6413;BME280;3239;48.714;9.472;2023-06-26T09:01:10;98048.34;;;31.04;69.11
6413;BME280;3239;48.714;9.472;2023-06-26T09:03:36;98043.69;;;30.89;68.70
6413;BME280;3239;48.714;9.472;2023-06-26T09:06:02;98036.81;;;31.53;67.37
6413;BME280;3239;48.714;9.472;2023-06-26T09:08:28;98042.53;;;30.72;69.16
6413;BME280;3239;48.714;9.472;2023-06-26T09:10:54;98045.81;;;31.43;66.94
6413;BME280;3239;48.714;9.472;2023-06-26T09:13:20;98036.09;;;31.52;63.85
6413;BME280;3239;48.714;9.472;2023-06-26T09:15:46;98032.06;;;31.61;60.52
6413;BME280;3239;48.714;9.472;2023-06-26T09:18:13;98036.72;;;31.78;57.09
6413;BME280;3239;48.714;9.472;2023-06-26T09:20:39;98030.81;;;31.39;59.97
6413;BME280;3239;48.714;9.472;2023-06-26T09:23:05;98028.34;;;32.18;56.94
6413;BME280;3239;48.714;9.472;2023-06-26T09:25:31;98029.31;;;31.97;56.00
6413;BME280;3239;48.714;9.472;2023-06-26T09:27:57;98014.09;;;32.47;60.31
6413;BME280;3239;48.714;9.472;2023-06-26T09:30:23;98023.56;;;32.99;54.96
6413;BME280;3239;48.714;9.472;2023-06-26T09:32:49;98017.53;;;32.42;52.00
6413;BME280;3239;48.714;9.472;2023-06-26T09:35:19;98020.19;;;32.34;52.90
6413;BME280;3239;48.714;9.472;2023-06-26T09:37:45;98007.56;;;31.74;55.84
6413;BME280;3239;48.714;9.472;2023-06-26T09:40:13;98018.31;;;33.23;54.08
6413;BME280;3239;48.714;9.472;2023-06-26T09:42:39;98013.75;;;33.48;44.23
6413;BME280;3239;48.714;9.472;2023-06-26T09:45:05;98012.28;;;34.50;43.95
6413;BME280;3239;48.714;9.472;2023-06-26T09:47:32;98013.19;;;33.59;40.95
6413;BME280;3239;48.714;9.472;2023-06-26T09:49:59;98005.66;;;33.30;42.28
6413;BME280;3239;48.714;9.472;2023-06-26T09:52:26;98003.38;;;34.20;42.87
6413;BME280;3239;48.714;9.472;2023-06-26T09:55:10;97979.09;;;34.72;41.33
6413;BME280;3239;48.714;9.472;2023-06-26T09:57:37;98005.38;;;33.14;41.19
6413;BME280;3239;48.714;9.472;2023-06-26T10:00:03;97998.00;;;33.41;43.69
6413;BME280;3239;48.714;9.472;2023-06-26T10:02:31;97985.16;;;34.39;39.60
6413;BME280;3239;48.714;9.472;2023-06-26T10:04:57;97995.09;;;34.38;41.76
6413;BME280;3239;48.714;9.472;2023-06-26T10:07:23;97986.63;;;33.39;39.85
6413;BME280;3239;48.714;9.472;2023-06-26T10:09:51;97986.09;;;32.67;44.17
6413;BME280;3239;48.714;9.472;2023-06-26T10:12:25;97992.31;;;34.44;42.81
6413;BME280;3239;48.714;9.472;2023-06-26T10:14:53;97997.78;;;33.74;43.10
6413;BME280;3239;48.714;9.472;2023-06-26T10:17:20;97996.41;;;33.77;45.43
6413;BME280;3239;48.714;9.472;2023-06-26T10:19:47;97985.13;;;33.81;43.07
6413;BME280;3239;48.714;9.472;2023-06-26T10:22:17;97982.53;;;35.36;40.54
6413;BME280;3239;48.714;9.472;2023-06-26T10:24:45;97981.53;;;35.02;38.41
6413;BME280;3239;48.714;9.472;2023-06-26T10:27:19;97985.91;;;35.17;39.94
6413;BME280;3239;48.714;9.472;2023-06-26T10:29:59;97991.56;;;34.39;43.92
6413;BME280;3239;48.714;9.472;2023-06-26T10:32:26;98002.41;;;33.97;44.65
6413;BME280;3239;48.714;9.472;2023-06-26T10:34:53;97986.56;;;32.91;48.27
6413;BME280;3239;48.714;9.472;2023-06-26T10:37:20;97999.78;;;33.18;50.02
6413;BME280;3239;48.714;9.472;2023-06-26T10:39:49;97995.25;;;33.03;49.69
6413;BME280;3239;48.714;9.472;2023-06-26T10:42:16;98000.69;;;32.89;53.60
6413;BME280;3239;48.714;9.472;2023-06-26T10:44:45;98001.81;;;32.01;58.81
6413;BME280;3239;48.714;9.472;2023-06-26T10:47:12;98003.03;;;32.26;61.08
6413;BME280;3239;48.714;9.472;2023-06-26T10:49:54;98009.41;;;31.61;62.67
6413;BME280;3239;48.714;9.472;2023-06-26T10:52:19;98009.28;;;32.20;61.75
6413;BME280;3239;48.714;9.472;2023-06-26T10:54:45;98010.13;;;33.02;51.82
6413;BME280;3239;48.714;9.472;2023-06-26T10:57:11;98009.06;;;32.81;52.83
6413;BME280;3239;48.714;9.472;2023-06-26T10:59:40;98011.78;;;32.75;56.10
6413;BME280;3239;48.714;9.472;2023-06-26T11:02:06;98008.84;;;32.34;57.42
6413;BME280;3239;48.714;9.472;2023-06-26T11:04:46;98009.91;;;32.17;59.75
6413;BME280;3239;48.714;9.472;2023-06-26T11:07:19;98012.03;;;31.53;65.65
6413;BME280;3239;48.714;9.472;2023-06-26T11:15:12;98020.41;;;30.90;79.51
6413;BME280;3239;48.714;9.472;2023-06-26T11:17:39;98012.50;;;31.14;80.36
6413;BME280;3239;48.714;9.472;2023-06-26T11:20:08;98033.56;;;31.07;86.84
6413;BME280;3239;48.714;9.472;2023-06-26T11:22:36;98025.47;;;30.96;87.30
6413;BME280;3239;48.714;9.472;2023-06-26T11:25:03;98028.75;;;30.61;93.23
6413;BME280;3239;48.714;9.472;2023-06-26T11:27:39;98041.34;;;30.56;93.45
6413;BME280;3239;48.714;9.472;2023-06-26T11:30:06;98029.22;;;30.26;97.32
6413;BME280;3239;48.714;9.472;2023-06-26T11:32:33;98040.28;;;30.18;95.62
6413;BME280;3239;48.714;9.472;2023-06-26T11:34:59;98032.81;;;30.54;94.61
6413;BME280;3239;48.714;9.472;2023-06-26T11:37:25;98032.16;;;30.81;92.63
6413;BME280;3239;48.714;9.472;2023-06-26T11:39:52;98034.38;;;31.12;86.34
6413;BME280;3239;48.714;9.472;2023-06-26T11:42:19;98028.69;;;31.69;84.56
6413;BME280;3239;48.714;9.472;2023-06-26T11:44:45;98028.69;;;32.00;83.50
6413;BME280;3239;48.714;9.472;2023-06-26T11:47:19;98021.34;;;32.56;76.96
6413;BME280;3239;48.714;9.472;2023-06-26T11:49:47;98017.22;;;32.63;75.12
6413;BME280;3239;48.714;9.472;2023-06-26T11:52:14;98014.06;;;32.83;64.70
6413;BME280;3239;48.714;9.472;2023-06-26T11:54:41;98010.16;;;33.04;67.38
6413;BME280;3239;48.714;9.472;2023-06-26T11:57:08;98016.28;;;33.28;62.60
6413;BME280;3239;48.714;9.472;2023-06-26T11:59:38;98018.25;;;33.21;58.07
6413;BME280;3239;48.714;9.472;2023-06-26T12:02:13;98010.03;;;32.96;59.52
6413;BME280;3239;48.714;9.472;2023-06-26T12:04:44;98022.91;;;33.03;64.56
6413;BME280;3239;48.714;9.472;2023-06-26T12:07:10;98020.16;;;33.07;64.90
6413;BME280;3239;48.714;9.472;2023-06-26T12:09:46;98015.75;;;32.98;67.07
6413;BME280;3239;48.714;9.472;2023-06-26T12:12:16;98016.84;;;32.79;64.81
6413;BME280;3239;48.714;9.472;2023-06-26T12:14:42;98011.47;;;32.97;65.44
6413;BME280;3239;48.714;9.472;2023-06-26T12:17:12;98011.97;;;32.48;66.99
6413;BME280;3239;48.714;9.472;2023-06-26T12:19:47;98011.34;;;32.89;64.17
6413;BME280;3239;48.714;9.472;2023-06-26T12:22:17;98016.50;;;32.63;68.83
6413;BME280;3239;48.714;9.472;2023-06-26T12:24:44;98020.31;;;32.40;68.95
6413;BME280;3239;48.714;9.472;2023-06-26T12:27:13;98014.06;;;32.45;71.26
6413;BME280;3239;48.714;9.472;2023-06-26T12:29:45;98022.31;;;32.69;74.70
6413;BME280;3239;48.714;9.472;2023-06-26T12:32:11;98021.25;;;32.88;75.03
6413;BME280;3239;48.714;9.472;2023-06-26T12:34:38;98026.47;;;32.64;83.30
6413;BME280;3239;48.714;9.472;2023-06-26T12:37:06;98021.47;;;32.27;89.58
6413;BME280;3239;48.714;9.472;2023-06-26T12:42:21;98029.53;;;32.38;96.96
6413;BME280;3239;48.714;9.472;2023-06-26T12:44:48;98030.00;;;32.27;95.26
6413;BME280;3239;48.714;9.472;2023-06-26T12:47:16;98024.09;;;32.17;93.28
6413;BME280;3239;48.714;9.472;2023-06-26T12:49:44;98014.84;;;32.50;96.83
6413;BME280;3239;48.714;9.472;2023-06-26T12:52:15;98019.66;;;32.43;94.80
6413;BME280;3239;48.714;9.472;2023-06-26T12:54:42;98019.41;;;32.67;90.33
6413;BME280;3239;48.714;9.472;2023-06-26T12:57:09;98017.47;;;32.75;92.70
6413;BME280;3239;48.714;9.472;2023-06-26T12:59:37;98020.31;;;33.15;95.47
6413;BME280;3239;48.714;9.472;2023-06-26T13:02:03;98007.22;;;32.98;93.71
6413;BME280;3239;48.714;9.472;2023-06-26T13:04:29;98010.53;;;33.26;92.00
6413;BME280;3239;48.714;9.472;2023-06-26T13:06:55;98004.16;;;33.27;87.37
6413;BME280;3239;48.714;9.472;2023-06-26T13:09:22;98011.31;;;33.28;85.91
6413;BME280;3239;48.714;9.472;2023-06-26T13:11:51;98013.25;;;33.61;84.28
6413;BME280;3239;48.714;9.472;2023-06-26T13:14:17;98003.19;;;33.11;89.40
6413;BME280;3239;48.714;9.472;2023-06-26T13:16:43;98008.72;;;33.44;88.10
6413;BME280;3239;48.714;9.472;2023-06-26T13:19:08;98005.84;;;33.42;86.75
6413;BME280;3239;48.714;9.472;2023-06-26T13:21:34;98004.81;;;33.67;86.83
6413;BME280;3239;48.714;9.472;2023-06-26T13:24:00;98000.50;;;32.79;89.99
6413;BME280;3239;48.714;9.472;2023-06-26T13:26:27;98003.22;;;32.73;92.64